Time;durP1;ratioP1;P1;durP2;ratioP2;P2;SDS_P1;SDS_P2;PMS_P1;PMS_P2;Temp;Humidity;BMP_temperature;BMP_pressure;BME280_temperature;BME280_humidity;BME280_pressure;Samples;Min_cycle;Max_cycle;Signal;HPM_P1;HPM_P2
2023/01/04 00:01:03;;;;;;;56.53;15.80;;;10.70;99.90;;;;;;5082455;28;20068;-60
2023/01/04 00:03:30;;;;;;;55.33;15.90;;;10.80;99.90;;;;;;5065584;28;20052;-60
2023/01/04 00:06:00;;;;;;;65.60;16.50;;;10.80;99.90;;;;;;5080772;28;20100;-60
2023/01/04 00:08:26;;;;;;;48.78;16.25;;;10.80;99.90;;;;;;5065496;28;20028;-60
2023/01/04 00:10:52;;;;;;;48.90;15.50;;;10.70;99.90;;;;;;5066984;28;20040;-60
2023/01/04 00:13:17;;;;;;;37.22;14.25;;;10.70;99.90;;;;;;5065610;28;20037;-60
2023/01/04 00:15:43;;;;;;;50.13;15.05;;;10.70;99.90;;;;;;5081981;28;20398;-60
2023/01/04 00:18:08;;;;;;;54.03;15.63;;;10.70;99.90;;;;;;5066872;28;20025;-60
2023/01/04 00:20:34;;;;;;;50.20;14.95;;;10.70;99.90;;;;;;5082073;28;20441;-60
2023/01/04 00:22:59;;;;;;;59.42;15.60;;;10.70;99.90;;;;;;5067081;28;20437;-60
2023/01/04 00:25:25;;;;;;;41.00;16.52;;;10.70;99.90;;;;;;5066646;28;20132;-60
2023/01/04 00:27:51;;;;;;;47.05;15.93;;;10.70;99.90;;;;;;5081788;28;20044;-60
2023/01/04 00:30:17;;;;;;;39.65;15.73;;;10.70;99.90;;;;;;5082106;28;20056;-60
2023/01/04 00:32:43;;;;;;;46.33;16.05;;;10.70;99.90;;;;;;5066783;28;20445;-60
2023/01/04 00:35:09;;;;;;;43.40;16.02;;;10.70;99.90;;;;;;5066477;28;20037;-60
2023/01/04 00:37:34;;;;;;;57.30;17.45;;;10.70;99.90;;;;;;5065124;28;20017;-60
2023/01/04 00:40:00;;;;;;;49.60;17.23;;;10.70;99.90;;;;;;5081705;28;20029;-60
2023/01/04 00:42:25;;;;;;;48.20;16.08;;;10.70;99.90;;;;;;5066308;28;20017;-60
2023/01/04 00:44:51;;;;;;;51.85;16.05;;;10.70;99.90;;;;;;5081314;28;20115;-60
2023/01/04 00:47:16;;;;;;;52.22;16.85;;;10.70;99.90;;;;;;5081507;28;20041;-60
2023/01/04 00:49:42;;;;;;;47.95;16.63;;;10.60;99.90;;;;;;5066283;28;20036;-60
2023/01/04 00:52:08;;;;;;;42.13;18.02;;;10.70;99.90;;;;;;5081556;28;20024;-60
2023/01/04 00:54:34;;;;;;;45.28;17.42;;;10.70;99.90;;;;;;5066170;28;20049;-60
2023/01/04 00:57:00;;;;;;;39.10;16.45;;;10.60;99.90;;;;;;5065992;28;20468;-60
2023/01/04 00:59:25;;;;;;;48.50;17.98;;;10.60;99.90;;;;;;5064590;28;20036;-60
2023/01/04 01:01:51;;;;;;;46.80;18.63;;;10.60;99.90;;;;;;5081276;28;20013;-60
2023/01/04 01:04:17;;;;;;;48.38;18.25;;;10.60;99.90;;;;;;5064485;28;20043;-60
2023/01/04 01:06:43;;;;;;;49.83;18.38;;;10.60;99.90;;;;;;5047766;28;20025;-60
2023/01/04 01:09:09;;;;;;;43.80;17.80;;;10.60;99.90;;;;;;5065842;28;20067;-60
2023/01/04 01:11:38;;;;;;;40.13;16.70;;;10.60;99.90;;;;;;5081147;28;20097;-60
2023/01/04 01:14:04;;;;;;;43.03;17.52;;;10.60;99.90;;;;;;5065806;28;20032;-60
2023/01/04 01:16:29;;;;;;;35.50;17.00;;;10.60;99.90;;;;;;5065665;28;20025;-60
2023/01/04 01:18:55;;;;;;;39.67;16.48;;;10.60;99.90;;;;;;5080595;28;20036;-60
2023/01/04 01:21:22;;;;;;;44.63;17.08;;;10.60;99.90;;;;;;5081021;28;20039;-60
2023/01/04 01:23:48;;;;;;;42.38;16.38;;;10.60;99.90;;;;;;5064129;28;20127;-60
2023/01/04 01:26:15;;;;;;;31.75;15.73;;;10.60;99.90;;;;;;5080913;28;20025;-60
2023/01/04 01:28:41;;;;;;;36.20;16.35;;;10.60;99.90;;;;;;5065975;28;20043;-60
2023/01/04 01:31:24;;;;;;;35.97;15.10;;;10.60;99.90;;;;;;5064726;28;20029;-60
2023/01/04 01:33:51;;;;;;;36.58;15.52;;;10.60;99.90;;;;;;5065432;28;20041;-60
2023/01/04 01:36:17;;;;;;;36.20;17.23;;;10.60;99.90;;;;;;5080526;28;20206;-60
2023/01/04 01:38:43;;;;;;;33.22;17.63;;;10.60;99.90;;;;;;5080601;28;20048;-60
2023/01/04 01:41:18;;;;;;;43.08;17.70;;;10.60;99.90;;;;;;5080636;28;20028;-59
2023/01/04 01:44:13;;;;;;;29.92;16.88;;;10.60;99.90;;;;;;5081157;28;20032;-60
2023/01/04 01:46:48;;;;;;;43.35;16.98;;;10.60;99.90;;;;;;5056389;28;20041;-60
2023/01/04 01:49:34;;;;;;;44.17;17.40;;;10.60;99.90;;;;;;5080455;28;20408;-60
2023/01/04 01:52:05;;;;;;;41.13;17.10;;;10.60;99.90;;;;;;5080340;28;20120;-60
2023/01/04 01:54:43;;;;;;;37.80;17.77;;;10.60;99.90;;;;;;5063651;28;20115;-60
2023/01/04 01:57:10;;;;;;;41.88;18.42;;;10.60;99.90;;;;;;5063649;28;20124;-60
2023/01/04 01:59:37;;;;;;;36.25;17.83;;;10.60;99.90;;;;;;5063557;28;20039;-60
2023/01/04 02:02:03;;;;;;;34.58;16.35;;;10.60;99.90;;;;;;5046757;28;20025;-60
2023/01/04 02:04:28;;;;;;;38.67;17.10;;;10.60;99.90;;;;;;5063531;28;20048;-60
2023/01/04 02:06:55;;;;;;;31.27;16.05;;;10.50;99.90;;;;;;5063333;28;20086;-60
2023/01/04 02:09:20;;;;;;;32.33;16.92;;;10.50;99.90;;;;;;5063506;28;20036;-60
2023/01/04 02:11:46;;;;;;;40.97;16.65;;;10.50;99.90;;;;;;5063308;28;20017;-60
2023/01/04 02:14:26;;;;;;;36.47;17.85;;;10.60;99.90;;;;;;5046729;28;20469;-60
2023/01/04 02:16:56;;;;;;;30.90;16.70;;;10.50;99.90;;;;;;5063193;28;20025;-60
2023/01/04 02:19:46;;;;;;;26.38;15.70;;;10.50;99.90;;;;;;5079961;28;20093;-60
2023/01/04 02:22:49;;;;;;;31.00;15.98;;;10.50;99.90;;;;;;5064721;28;20020;-59
2023/01/04 02:25:35;;;;;;;34.08;16.40;;;10.50;99.90;;;;;;5064498;28;20032;-60
2023/01/04 02:28:14;;;;;;;33.60;15.43;;;10.50;99.90;;;;;;5063073;28;20454;-60
2023/01/04 02:30:58;;;;;;;26.90;15.32;;;10.50;99.90;;;;;;5081536;28;20040;-60
2023/01/04 02:33:55;;;;;;;27.73;15.70;;;10.50;99.90;;;;;;5068629;28;20032;-60
2023/01/04 02:36:31;;;;;;;27.48;14.88;;;10.50;99.90;;;;;;5068732;28;20029;-60
2023/01/04 02:38:56;;;;;;;;;;;10.50;99.90;;;;;;5083827;28;20056;-60
2023/01/04 02:41:30;;;;;;;27.92;16.02;;;10.50;99.90;;;;;;5068730;28;19916;-60
2023/01/04 02:46:56;;;;;;;35.45;16.50;;;10.50;99.90;;;;;;5081083;28;20032;-60
2023/01/04 02:52:06;;;;;;;25.95;15.23;;;10.50;99.90;;;;;;5081473;28;20040;-60
2023/01/04 02:54:32;;;;;;;29.70;16.27;;;10.50;99.90;;;;;;5083654;28;20037;-60
2023/01/04 02:57:27;;;;;;;27.90;14.98;;;10.50;99.90;;;;;;5083808;28;20089;-60
2023/01/04 03:00:13;;;;;;;28.77;15.98;;;10.40;99.90;;;;;;5081287;28;20029;-60
2023/01/04 03:06:15;;;;;;;29.98;16.90;;;10.40;99.90;;;;;;5067012;28;20048;-60
2023/01/04 03:08:59;;;;;;;28.42;17.50;;;10.40;99.90;;;;;;5083109;28;20051;-60
2023/01/04 03:14:27;;;;;;;24.63;16.40;;;10.40;99.90;;;;;;5081155;28;20105;-60
2023/01/04 03:16:53;;;;;;;24.95;15.50;;;10.40;99.90;;;;;;5066592;28;20052;-60
2023/01/04 03:22:03;;;;;;;28.75;16.23;;;10.40;99.90;;;;;;5080787;28;20031;-60
2023/01/04 03:35:51;;;;;;;24.85;16.70;;;10.30;99.90;;;;;;5066621;28;20047;-60
2023/01/04 03:49:45;;;;;;;26.63;16.77;;;10.30;99.90;;;;;;5066482;28;20044;-60
2023/01/04 03:52:11;;;;;;;25.70;15.50;;;10.30;99.90;;;;;;5065949;28;20048;-60
2023/01/04 03:54:41;;;;;;;24.20;16.73;;;10.20;99.90;;;;;;5065901;28;20047;-60
2023/01/04 03:57:07;;;;;;;26.67;16.27;;;10.30;99.90;;;;;;5065829;28;20044;-60
2023/01/04 03:59:35;;;;;;;28.17;16.02;;;10.20;99.90;;;;;;5082399;28;20024;-60
2023/01/04 04:02:01;;;;;;;27.20;16.38;;;10.30;99.90;;;;;;5049257;28;20056;-60
2023/01/04 04:09:55;;;;;;;23.77;15.60;;;10.20;99.90;;;;;;5080176;28;20132;-60
2023/01/04 04:12:20;;;;;;;25.20;15.70;;;10.20;99.90;;;;;;5066884;28;20132;-60
2023/01/04 04:14:46;;;;;;;27.50;15.63;;;10.20;99.90;;;;;;5082426;28;20048;-60
2023/01/04 04:17:11;;;;;;;21.45;15.57;;;10.20;99.90;;;;;;5082456;28;20144;-60
2023/01/04 04:19:37;;;;;;;26.33;15.60;;;10.20;99.90;;;;;;5082213;28;20017;-60
2023/01/04 04:22:02;;;;;;;25.40;15.32;;;10.10;99.90;;;;;;5066979;28;20079;-59
2023/01/04 04:24:28;;;;;;;22.67;16.20;;;10.20;99.90;;;;;;5066919;28;20017;-60
2023/01/04 04:26:54;;;;;;;22.48;15.13;;;10.10;99.90;;;;;;5066788;28;20033;-60
2023/01/04 04:29:20;;;;;;;22.58;14.85;;;10.10;99.90;;;;;;5082003;28;20024;-60
2023/01/04 04:31:46;;;;;;;23.00;14.45;;;10.10;99.90;;;;;;5082042;28;20110;-60
2023/01/04 04:34:11;;;;;;;20.92;15.32;;;10.10;99.90;;;;;;5081772;28;20033;-60
2023/01/04 04:36:37;;;;;;;20.10;14.20;;;10.10;99.90;;;;;;5064942;28;20034;-60
2023/01/04 04:39:03;;;;;;;18.80;14.25;;;10.10;99.90;;;;;;5065282;28;20032;-60
2023/01/04 04:41:37;;;;;;;21.73;15.60;;;10.10;99.90;;;;;;5081793;28;20092;-60
2023/01/04 04:44:07;;;;;;;23.58;14.35;;;10.10;99.90;;;;;;5080520;28;20542;-60
2023/01/04 04:46:32;;;;;;;22.00;13.63;;;10.00;99.90;;;;;;5066282;28;20025;-60
2023/01/04 04:48:58;;;;;;;21.42;14.27;;;10.00;99.90;;;;;;5064588;28;20406;-60
2023/01/04 04:51:23;;;;;;;20.00;13.38;;;10.00;99.90;;;;;;5064933;28;20495;-60
2023/01/04 04:53:49;;;;;;;18.40;14.15;;;10.00;99.90;;;;;;5065684;28;20040;-60
2023/01/04 04:56:14;;;;;;;22.58;14.75;;;10.00;99.90;;;;;;5081325;28;20059;-60
2023/01/04 04:58:40;;;;;;;21.83;14.48;;;10.00;99.90;;;;;;5066159;28;20105;-60
2023/01/04 05:01:05;;;;;;;29.52;15.40;;;10.00;99.90;;;;;;5066089;28;20033;-60
2023/01/04 05:03:31;;;;;;;19.02;14.13;;;10.00;99.90;;;;;;5065978;28;20040;-60
2023/01/04 05:05:57;;;;;;;24.25;14.30;;;10.00;99.90;;;;;;5081304;28;20029;-60
2023/01/04 05:08:22;;;;;;;22.88;13.88;;;9.90;99.90;;;;;;5064248;28;20452;-60
2023/01/04 05:10:48;;;;;;;21.30;13.75;;;10.00;99.90;;;;;;5065843;28;20025;-60
2023/01/04 05:13:13;;;;;;;19.33;14.05;;;9.90;99.90;;;;;;5081211;28;20032;-60
2023/01/04 05:15:40;;;;;;;20.83;14.13;;;9.90;99.90;;;;;;5065863;28;20029;-58
2023/01/04 05:18:06;;;;;;;19.67;13.27;;;9.90;99.90;;;;;;5081088;28;20028;-60
2023/01/04 05:20:32;;;;;;;19.63;14.18;;;9.90;99.90;;;;;;5081244;28;20064;-60
2023/01/04 05:22:57;;;;;;;23.65;13.60;;;9.90;99.90;;;;;;5080684;28;20029;-59
2023/01/04 05:25:23;;;;;;;20.20;13.98;;;9.90;99.90;;;;;;5080988;28;20087;-60
2023/01/04 05:27:49;;;;;;;19.63;13.23;;;9.90;99.90;;;;;;5065390;28;20048;-60
2023/01/04 05:32:58;;;;;;;25.63;13.32;;;9.90;99.90;;;;;;5078368;28;20055;-60
2023/01/04 05:35:24;;;;;;;19.05;12.77;;;9.90;99.90;;;;;;5063815;28;20033;-60
2023/01/04 05:37:50;;;;;;;22.80;13.50;;;9.90;99.90;;;;;;5065483;28;20025;-60
2023/01/04 05:40:15;;;;;;;18.67;13.13;;;9.80;99.90;;;;;;5080522;28;20507;-60
2023/01/04 05:42:41;;;;;;;19.52;12.70;;;9.90;99.90;;;;;;5063849;28;20040;-60
2023/01/04 05:45:07;;;;;;;18.92;12.40;;;9.80;99.90;;;;;;5080296;28;20025;-60
2023/01/04 05:47:32;;;;;;;20.20;12.65;;;9.80;99.90;;;;;;5065029;28;20453;-60
2023/01/04 05:49:58;;;;;;;22.08;13.20;;;9.80;99.90;;;;;;5080479;28;20036;-60
2023/01/04 05:52:23;;;;;;;16.80;12.65;;;9.80;99.90;;;;;;5065513;28;20027;-60
2023/01/04 05:54:49;;;;;;;14.70;12.32;;;9.80;99.90;;;;;;5063862;28;20139;-60
2023/01/04 05:57:15;;;;;;;16.80;12.27;;;9.80;99.90;;;;;;5080666;28;20036;-60
2023/01/04 05:59:40;;;;;;;21.75;12.13;;;9.80;99.90;;;;;;5080306;28;20040;-60
2023/01/04 06:02:06;;;;;;;15.77;13.23;;;9.70;99.90;;;;;;5065033;28;20039;-60
2023/01/04 06:04:32;;;;;;;21.23;12.07;;;9.80;99.90;;;;;;5079344;28;20061;-60
2023/01/04 06:06:57;;;;;;;17.55;11.15;;;9.70;99.90;;;;;;5080320;28;20048;-60
2023/01/04 06:09:26;;;;;;;19.85;12.45;;;9.70;99.90;;;;;;5063426;28;20151;-59
2023/01/04 06:11:52;;;;;;;16.35;11.55;;;9.70;99.90;;;;;;5079917;28;20086;-60
2023/01/04 06:14:17;;;;;;;16.50;12.07;;;9.70;99.90;;;;;;5064907;28;20079;-59
2023/01/04 06:16:43;;;;;;;15.15;12.23;;;9.70;99.90;;;;;;5064861;28;20075;-60
2023/01/04 06:19:08;;;;;;;17.13;11.68;;;9.70;99.90;;;;;;5080191;28;20021;-60
2023/01/04 06:21:34;;;;;;;15.48;11.68;;;9.70;99.90;;;;;;5064677;28;20029;-60
2023/01/04 06:23:59;;;;;;;14.15;11.10;;;9.70;99.90;;;;;;5063239;28;20075;-60
2023/01/04 06:26:25;;;;;;;14.50;11.98;;;9.70;99.90;;;;;;5064730;28;20029;-60
2023/01/04 06:28:50;;;;;;;13.95;10.88;;;9.70;99.90;;;;;;5079932;28;20040;-60
2023/01/04 06:31:16;;;;;;;18.27;11.85;;;9.60;99.90;;;;;;5064906;28;20055;-60
2023/01/04 06:33:41;;;;;;;14.13;10.63;;;9.60;99.90;;;;;;5063495;28;20044;-60
2023/01/04 06:36:07;;;;;;;13.25;10.85;;;9.60;99.90;;;;;;5080057;28;20044;-59
2023/01/04 06:38:33;;;;;;;15.45;11.38;;;9.60;99.90;;;;;;5080185;28;20017;-60
2023/01/04 06:40:58;;;;;;;17.73;11.60;;;9.60;99.90;;;;;;5080136;28;20033;-60
2023/01/04 06:43:24;;;;;;;16.58;11.30;;;9.60;99.90;;;;;;5080499;28;20036;-60
2023/01/04 06:45:49;;;;;;;19.60;11.88;;;9.60;99.90;;;;;;5064959;28;20132;-59
2023/01/04 06:48:15;;;;;;;14.00;10.57;;;9.60;99.90;;;;;;5079709;28;20036;-60
2023/01/04 06:50:41;;;;;;;15.07;10.73;;;9.60;99.90;;;;;;5080090;28;20056;-60
2023/01/04 06:53:06;;;;;;;14.38;10.88;;;9.50;99.90;;;;;;5079738;28;20028;-59
2023/01/04 06:55:32;;;;;;;13.30;11.07;;;9.50;99.90;;;;;;5064429;28;20029;-60
2023/01/04 06:57:57;;;;;;;15.10;11.13;;;9.60;99.90;;;;;;5046287;28;20113;-60
2023/01/04 07:00:23;;;;;;;14.43;11.23;;;9.50;99.90;;;;;;5079586;28;20521;-60
2023/01/04 07:02:49;;;;;;;14.43;11.30;;;9.50;99.90;;;;;;5063035;28;20029;-60
2023/01/04 07:05:14;;;;;;;15.98;10.02;;;9.50;99.90;;;;;;5064407;28;20025;-59
2023/01/04 07:07:40;;;;;;;13.77;10.63;;;9.50;99.90;;;;;;5062864;28;20036;-59
2023/01/04 07:10:06;;;;;;;11.45;9.55;;;9.50;99.90;;;;;;5062754;28;20021;-60
2023/01/04 07:12:31;;;;;;;14.63;10.55;;;9.50;99.90;;;;;;5079618;28;20045;-60
2023/01/04 07:14:57;;;;;;;13.65;10.55;;;9.50;99.90;;;;;;5062787;28;20025;-60
2023/01/04 07:17:22;;;;;;;11.82;10.57;;;9.50;99.90;;;;;;5067952;28;20044;-60
2023/01/04 07:19:48;;;;;;;13.43;10.65;;;9.50;99.90;;;;;;5083238;28;20017;-60
2023/01/04 07:22:14;;;;;;;14.73;10.30;;;9.50;99.90;;;;;;5083403;28;20093;-60
2023/01/04 07:24:39;;;;;;;12.18;10.45;;;9.50;99.90;;;;;;5067923;28;20024;-59
2023/01/04 07:27:05;;;;;;;14.02;10.27;;;9.50;99.90;;;;;;5082901;28;20136;-60
2023/01/04 07:29:30;;;;;;;13.55;11.00;;;9.50;99.90;;;;;;5067745;28;20022;-60
2023/01/04 07:31:56;;;;;;;14.35;10.57;;;9.50;99.90;;;;;;5066030;28;20396;-60
2023/01/04 07:34:23;;;;;;;12.00;10.70;;;9.40;99.90;;;;;;5066330;28;20052;-60
2023/01/04 07:36:49;;;;;;;12.13;10.48;;;9.50;99.90;;;;;;5067576;28;20032;-60
2023/01/04 07:39:15;;;;;;;12.25;10.07;;;9.40;99.90;;;;;;5066127;28;20496;-59
2023/01/04 07:41:41;;;;;;;14.68;9.75;;;9.50;99.90;;;;;;5067482;28;20060;-60
2023/01/04 07:44:07;;;;;;;13.73;9.88;;;9.40;99.90;;;;;;5082644;28;20029;-60
2023/01/04 07:46:32;;;;;;;13.75;10.13;;;9.40;99.90;;;;;;5082686;28;20047;-60
2023/01/04 07:48:58;;;;;;;11.55;9.77;;;9.40;99.90;;;;;;5082827;28;20039;-60
2023/01/04 07:51:24;;;;;;;11.57;9.20;;;9.40;99.90;;;;;;5067412;28;20108;-60
2023/01/04 07:53:49;;;;;;;11.63;9.35;;;9.40;99.90;;;;;;5082720;28;20083;-60
2023/01/04 07:56:15;;;;;;;12.57;9.68;;;9.50;99.90;;;;;;5082398;28;20025;-60
2023/01/04 07:58:41;;;;;;;11.77;9.65;;;9.40;99.90;;;;;;5082381;28;20025;-60
2023/01/04 08:01:11;;;;;;;12.45;10.07;;;9.40;99.90;;;;;;5067415;28;20461;-60
2023/01/04 08:03:36;;;;;;;12.43;9.32;;;9.50;99.90;;;;;;5065789;28;20028;-60
2023/01/04 08:06:06;;;;;;;10.80;8.32;;;9.50;99.90;;;;;;5048922;28;20033;-60
2023/01/04 08:08:32;;;;;;;11.70;8.88;;;9.50;99.90;;;;;;5081883;28;20044;-60
2023/01/04 08:11:02;;;;;;;10.35;8.50;;;9.50;99.90;;;;;;5082268;28;20045;-59
2023/01/04 08:13:27;;;;;;;10.20;9.02;;;9.50;99.90;;;;;;5082330;28;20037;-60
2023/01/04 08:15:53;;;;;;;12.32;9.02;;;9.50;99.90;;;;;;5065194;28;20025;-59
2023/01/04 08:18:19;;;;;;;10.43;8.68;;;9.50;99.90;;;;;;5066586;28;20516;-60
2023/01/04 08:20:44;;;;;;;11.93;8.65;;;9.50;99.90;;;;;;5081986;28;20330;-60
2023/01/04 08:23:10;;;;;;;11.50;9.00;;;9.50;99.90;;;;;;5081902;28;20112;-60
2023/01/04 08:25:35;;;;;;;9.70;8.43;;;9.50;99.90;;;;;;5066692;28;20029;-60
2023/01/04 08:28:01;;;;;;;13.10;8.70;;;9.50;99.90;;;;;;5065622;28;20031;-60
2023/01/04 08:30:26;;;;;;;11.88;7.90;;;9.50;99.90;;;;;;5066445;28;20036;-60
2023/01/04 08:32:52;;;;;;;13.90;9.18;;;9.60;99.90;;;;;;5066358;28;20029;-60
2023/01/04 08:35:18;;;;;;;10.45;8.45;;;9.60;99.90;;;;;;5064767;28;20040;-60
2023/01/04 08:37:44;;;;;;;9.90;8.10;;;9.60;99.90;;;;;;5081365;28;20074;-60
2023/01/04 08:40:10;;;;;;;14.77;9.10;;;9.60;99.90;;;;;;5081531;28;20025;-60
2023/01/04 08:42:35;;;;;;;11.95;8.50;;;9.60;99.90;;;;;;5081512;28;20033;-60
2023/01/04 08:45:01;;;;;;;15.75;8.32;;;9.60;99.90;;;;;;5065978;28;20036;-60
2023/01/04 08:47:28;;;;;;;14.52;8.13;;;9.60;99.90;;;;;;5081498;28;20048;-60
2023/01/04 08:49:53;;;;;;;12.15;7.97;;;9.60;99.90;;;;;;5080999;28;20025;-60
2023/01/04 08:52:19;;;;;;;16.10;8.05;;;9.60;99.90;;;;;;5066062;28;20025;-60
2023/01/04 08:54:44;;;;;;;16.98;8.50;;;9.70;99.90;;;;;;5066054;28;20064;-60
2023/01/04 08:57:10;;;;;;;14.70;8.07;;;9.70;99.90;;;;;;5065621;28;20520;-60
2023/01/04 08:59:35;;;;;;;32.10;9.27;;;9.70;99.90;;;;;;5065702;28;20025;-60
2023/01/04 09:02:01;;;;;;;30.23;9.45;;;9.70;99.90;;;;;;5064124;28;20028;-60
2023/01/04 09:04:26;;;;;;;18.90;8.98;;;9.70;99.90;;;;;;5080875;28;20099;-60
2023/01/04 09:06:52;;;;;;;27.00;9.02;;;9.70;99.90;;;;;;5064073;28;20032;-60
2023/01/04 09:09:18;;;;;;;45.70;9.52;;;9.70;99.90;;;;;;5065430;28;20029;-60
2023/01/04 09:11:43;;;;;;;37.42;10.50;;;9.80;99.90;;;;;;5080493;28;20029;-60
2023/01/04 09:14:09;;;;;;;48.13;11.23;;;9.80;99.90;;;;;;5063372;28;20460;-60
2023/01/04 09:16:36;;;;;;;43.47;10.30;;;9.80;99.90;;;;;;5063501;28;20060;-60
2023/01/04 09:19:01;;;;;;;44.08;10.60;;;9.80;99.90;;;;;;5063817;28;20021;-60
2023/01/04 09:21:27;;;;;;;52.17;11.23;;;9.90;99.90;;;;;;5063925;28;20029;-59
2023/01/04 09:23:52;;;;;;;56.22;10.45;;;9.90;99.90;;;;;;5080497;28;20039;-59
2023/01/04 09:26:22;;;;;;;53.47;11.55;;;9.90;99.90;;;;;;5065138;28;20033;-60
2023/01/04 09:28:51;;;;;;;71.32;12.00;;;9.90;99.90;;;;;;5064981;28;20053;-60
2023/01/04 09:31:18;;;;;;;67.82;13.48;;;9.90;99.90;;;;;;5063765;28;20082;-60
2023/01/04 09:33:44;;;;;;;87.03;13.93;;;10.00;99.90;;;;;;5063462;28;20028;-60
2023/01/04 09:36:11;;;;;;;95.25;14.75;;;10.00;99.90;;;;;;5080040;28;20021;-60
2023/01/04 09:38:37;;;;;;;78.55;14.50;;;10.00;99.90;;;;;;5046413;28;20031;-60
2023/01/04 09:41:25;;;;;;;72.38;14.50;;;10.00;99.90;;;;;;5079875;28;20438;-60
2023/01/04 09:44:19;;;;;;;86.93;14.40;;;10.00;99.90;;;;;;5079552;28;20480;-60
2023/01/04 09:46:54;;;;;;;79.05;15.10;;;10.00;99.90;;;;;;5077661;28;20033;-60
2023/01/04 09:49:28;;;;;;;90.78;15.48;;;10.10;99.90;;;;;;5080041;28;20047;-60
2023/01/04 09:51:58;;;;;;;109.75;16.25;;;10.10;99.90;;;;;;5063365;28;20029;-60
2023/01/04 09:54:27;;;;;;;125.80;17.75;;;10.10;99.90;;;;;;5079997;28;20044;-60
2023/01/04 09:56:54;;;;;;;115.18;17.17;;;10.20;99.90;;;;;;5063331;28;20032;-60
2023/01/04 09:59:31;;;;;;;108.68;16.95;;;10.20;99.90;;;;;;5063277;28;20047;-60
2023/01/04 10:02:09;;;;;;;152.02;17.85;;;10.20;99.90;;;;;;5063167;28;20079;-60
2023/01/04 10:04:40;;;;;;;115.93;17.13;;;10.20;99.90;;;;;;5079952;28;20170;-60
2023/01/04 10:07:17;;;;;;;151.25;17.45;;;10.20;99.90;;;;;;5063089;28;20040;-59
2023/01/04 10:09:43;;;;;;;183.70;23.95;;;10.30;99.90;;;;;;5078947;28;20048;-60
2023/01/04 10:12:13;;;;;;;172.27;21.45;;;10.30;99.90;;;;;;5063613;28;20167;-59
2023/01/04 10:15:00;;;;;;;140.50;20.33;;;10.30;99.90;;;;;;5079891;28;20041;-60
2023/01/04 10:17:49;;;;;;;140.52;20.90;;;10.30;99.90;;;;;;5064265;28;20485;-60
2023/01/04 10:20:52;;;;;;;134.23;18.55;;;10.40;99.90;;;;;;5053822;28;20037;-60
2023/01/04 10:23:17;;;;;;;157.38;20.08;;;10.40;99.90;;;;;;5079761;28;20046;-60
2023/01/04 10:25:46;;;;;;;156.20;20.55;;;10.40;99.90;;;;;;5064461;28;20029;-59
2023/01/04 10:28:47;;;;;;;141.73;19.17;;;10.40;99.90;;;;;;5062689;28;20095;-60
2023/01/04 10:31:16;;;;;;;125.75;18.42;;;10.50;99.90;;;;;;5052129;28;20151;-59
2023/01/04 10:34:05;;;;;;;140.32;20.75;;;10.50;99.90;;;;;;5047441;28;20083;-59
2023/01/04 10:36:30;;;;;;;183.23;22.95;;;10.50;99.90;;;;;;5076827;28;20050;-60
2023/01/04 10:39:02;;;;;;;188.73;21.77;;;10.50;99.90;;;;;;5079964;28;20032;-60
2023/01/04 10:41:30;;;;;;;168.15;20.23;;;10.50;99.90;;;;;;5079310;28;20081;-58
2023/01/04 10:44:04;;;;;;;155.98;18.75;;;10.60;99.90;;;;;;5062945;28;20033;-60
2023/01/04 10:46:43;;;;;;;177.48;21.17;;;10.60;99.90;;;;;;5046150;28;20098;-60
2023/01/04 10:49:17;;;;;;;162.25;21.23;;;10.60;99.90;;;;;;5062806;28;20043;-60
2023/01/04 10:51:51;;;;;;;152.95;20.38;;;10.60;99.90;;;;;;5067332;28;20052;-60
2023/01/04 10:54:37;;;;;;;146.63;19.38;;;10.60;99.90;;;;;;5068730;28;20064;-60
2023/01/04 10:57:28;;;;;;;151.13;20.23;;;10.60;99.90;;;;;;5083385;28;20067;-60
2023/01/04 11:00:18;;;;;;;168.27;22.92;;;10.70;99.90;;;;;;5067822;28;20075;-60
2023/01/04 11:02:57;;;;;;;172.50;21.75;;;10.70;99.90;;;;;;5066440;28;20036;-59
2023/01/04 11:05:28;;;;;;;187.70;22.45;;;10.70;99.90;;;;;;5081534;28;20187;-60
2023/01/04 11:07:59;;;;;;;177.55;24.15;;;10.70;99.90;;;;;;5082997;28;20080;-60
2023/01/04 11:10:48;;;;;;;220.35;26.23;;;10.70;99.90;;;;;;5083263;28;20060;-60
2023/01/04 11:13:14;;;;;;;205.68;25.95;;;10.80;99.90;;;;;;5066253;28;20039;-60
2023/01/04 11:15:41;;;;;;;166.60;24.15;;;10.80;99.90;;;;;;5066087;28;20092;-60
2023/01/04 11:18:07;;;;;;;233.90;25.92;;;10.80;99.90;;;;;;5065959;28;20017;-59
2023/01/04 11:20:32;;;;;;;217.45;26.98;;;10.90;99.90;;;;;;5063985;28;20074;-60
2023/01/04 11:23:12;;;;;;;207.77;24.35;;;10.90;99.90;;;;;;5080438;28;20036;-60
2023/01/04 11:25:44;;;;;;;234.48;28.35;;;10.90;99.90;;;;;;5064299;28;20092;-59
2023/01/04 11:28:30;;;;;;;230.77;25.25;;;10.90;99.90;;;;;;5080177;28;20126;-60
2023/01/04 11:31:21;;;;;;;198.27;26.30;;;11.00;99.90;;;;;;5080852;28;20032;-60
2023/01/04 11:33:51;;;;;;;248.95;27.15;;;11.00;99.90;;;;;;5064124;28;20040;-60
2023/01/04 11:36:37;;;;;;;235.40;27.33;;;11.00;99.90;;;;;;5067507;28;20098;-60
2023/01/04 11:39:15;;;;;;;195.25;26.02;;;11.10;99.90;;;;;;5096195;28;20021;-60
2023/01/04 11:42:03;;;;;;;201.48;27.45;;;11.10;99.90;;;;;;5082299;28;20059;-60
2023/01/04 11:44:29;;;;;;;376.05;38.38;;;11.10;99.90;;;;;;5082472;28;20040;-60
2023/01/04 11:47:13;;;;;;;272.23;29.67;;;11.20;99.90;;;;;;5082223;28;20064;-60
2023/01/04 11:49:39;;;;;;;232.27;28.85;;;11.20;99.90;;;;;;5082703;28;20084;-59
2023/01/04 11:52:07;;;;;;;275.35;32.50;;;11.30;99.90;;;;;;5082034;28;20056;-60
2023/01/04 11:54:32;;;;;;;267.55;29.85;;;11.30;99.90;;;;;;5081622;28;20033;-60
2023/01/04 11:57:00;;;;;;;266.42;30.83;;;11.30;99.90;;;;;;5066576;28;20033;-60
2023/01/04 11:59:26;;;;;;;179.10;25.80;;;11.30;99.90;;;;;;5067128;28;20464;-59
2023/01/04 12:02:19;;;;;;;196.32;27.80;;;11.30;99.90;;;;;;5080865;28;20025;-60
2023/01/04 12:04:45;;;;;;;203.73;28.20;;;11.30;99.90;;;;;;5065368;28;20021;-60
2023/01/04 12:07:26;;;;;;;210.43;28.67;;;11.30;99.90;;;;;;5082243;28;20036;-60
2023/01/04 12:09:51;;;;;;;222.38;27.60;;;11.30;99.90;;;;;;5081635;28;20031;-60
2023/01/04 12:12:17;;;;;;;209.65;28.58;;;11.30;99.90;;;;;;5082111;28;20112;-60
2023/01/04 12:14:49;;;;;;;216.98;24.52;;;11.30;99.90;;;;;;5081953;28;20036;-60
2023/01/04 12:17:28;;;;;;;246.25;29.92;;;11.40;99.90;;;;;;5081919;28;20025;-59
2023/01/04 12:19:54;;;;;;;244.27;28.30;;;11.40;99.90;;;;;;5081947;28;20106;-59
2023/01/04 12:22:23;;;;;;;272.63;32.08;;;11.40;99.90;;;;;;5067016;28;20108;-60
2023/01/04 12:24:48;;;;;;;265.00;31.52;;;11.40;99.90;;;;;;5066396;28;20028;-60
2023/01/04 12:27:14;;;;;;;192.63;26.23;;;11.40;99.90;;;;;;5082012;28;20041;-60
2023/01/04 12:29:56;;;;;;;225.90;28.92;;;11.40;99.90;;;;;;5081791;28;20095;-60
2023/01/04 12:32:21;;;;;;;192.63;26.73;;;11.40;99.90;;;;;;5066379;28;20048;-60
2023/01/04 12:34:47;;;;;;;205.63;26.33;;;11.40;99.90;;;;;;5066168;28;20049;-60
2023/01/04 12:37:44;;;;;;;211.73;27.35;;;11.40;99.90;;;;;;5064328;28;20032;-60
2023/01/04 12:40:45;;;;;;;227.20;28.05;;;11.40;99.90;;;;;;5065611;28;20110;-60
2023/01/04 12:43:13;;;;;;;246.13;30.48;;;11.40;99.90;;;;;;5065940;28;20438;-60
2023/01/04 12:45:39;;;;;;;244.90;29.55;;;11.40;99.90;;;;;;5066101;28;20043;-60
2023/01/04 12:51:19;;;;;;;353.33;37.43;;;11.40;99.90;;;;;;5065929;28;20504;-60
2023/01/04 12:53:51;;;;;;;213.18;27.92;;;11.40;99.90;;;;;;5064484;28;20531;-59
2023/01/04 12:56:16;;;;;;;250.93;28.65;;;11.40;99.90;;;;;;5080563;28;20033;-59
2023/01/04 12:59:06;;;;;;;201.10;26.70;;;11.50;99.90;;;;;;5080867;28;20074;-60
2023/01/04 13:01:31;;;;;;;219.60;27.90;;;11.50;99.90;;;;;;5081014;28;20037;-60
2023/01/04 13:04:00;;;;;;;229.60;29.25;;;11.50;99.90;;;;;;5064000;28;20160;-60
2023/01/04 13:06:26;;;;;;;199.15;25.35;;;11.50;99.90;;;;;;5080806;28;20104;-59
2023/01/04 13:08:52;;;;;;;243.43;29.08;;;11.50;99.90;;;;;;5081010;28;20028;-60
2023/01/04 13:11:37;;;;;;;214.05;27.60;;;11.50;99.90;;;;;;5081017;28;20059;-59
2023/01/04 13:14:08;;;;;;;218.88;26.90;;;11.60;99.90;;;;;;5079554;28;20492;-60
2023/01/04 13:17:04;;;;;;;193.48;25.63;;;11.60;99.90;;;;;;5064038;28;20092;-60
2023/01/04 13:19:29;;;;;;;192.45;26.02;;;11.50;99.90;;;;;;5080931;28;20078;-60
2023/01/04 13:21:55;;;;;;;197.45;26.08;;;11.60;99.90;;;;;;5080412;28;20056;-60
2023/01/04 13:24:34;;;;;;;269.60;30.55;;;11.60;99.90;;;;;;5063651;28;20036;-60
2023/01/04 13:27:14;;;;;;;259.40;31.00;;;11.60;99.90;;;;;;5081933;28;20089;-59
2023/01/04 13:29:40;;;;;;;247.63;31.60;;;11.60;99.90;;;;;;5075086;28;20036;-60